sensor_id;sensor_type;location;lat;lon;timestamp;P1;durP1;ratioP1;P2;durP2;ratioP2
17372;SDS011;8803;48.116;11.590;2023-10-08T00:01:36;4.00;;;3.10;;
17372;SDS011;8803;48.116;11.590;2023-10-08T00:03:43;3.73;;;3.20;;
17372;SDS011;8803;48.116;11.590;2023-10-08T00:05:50;4.70;;;3.53;;
17372;SDS011;8803;48.116;11.590;2023-10-08T00:07:54;4.73;;;3.27;;
17372;SDS011;8803;48.116;11.590;2023-10-08T00:09:58;4.30;;;3.07;;
17372;SDS011;8803;48.116;11.590;2023-10-08T00:12:11;4.47;;;2.93;;
17372;SDS011;8803;48.116;11.590;2023-10-08T00:14:17;5.33;;;3.40;;
17372;SDS011;8803;48.116;11.590;2023-10-08T00:16:23;3.37;;;2.67;;
17372;SDS011;8803;48.116;11.590;2023-10-08T00:18:29;3.97;;;2.93;;
17372;SDS011;8803;48.116;11.590;2023-10-08T00:20:35;4.30;;;2.90;;
17372;SDS011;8803;48.116;11.590;2023-10-08T00:22:46;4.17;;;3.17;;
17372;SDS011;8803;48.116;11.590;2023-10-08T00:24:50;4.53;;;3.13;;
17372;SDS011;8803;48.116;11.590;2023-10-08T00:26:58;4.73;;;3.40;;
17372;SDS011;8803;48.116;11.590;2023-10-08T00:29:11;6.10;;;3.37;;
17372;SDS011;8803;48.116;11.590;2023-10-08T00:31:19;4.47;;;3.23;;
17372;SDS011;8803;48.116;11.590;2023-10-08T00:33:26;5.80;;;3.30;;
17372;SDS011;8803;48.116;11.590;2023-10-08T00:35:31;5.10;;;3.10;;
17372;SDS011;8803;48.116;11.590;2023-10-08T00:37:37;3.83;;;3.17;;
17372;SDS011;8803;48.116;11.590;2023-10-08T00:39:42;4.57;;;3.20;;
17372;SDS011;8803;48.116;11.590;2023-10-08T00:41:47;3.93;;;2.90;;
17372;SDS011;8803;48.116;11.590;2023-10-08T00:43:52;6.17;;;3.63;;
17372;SDS011;8803;48.116;11.590;2023-10-08T00:45:59;4.87;;;3.53;;
17372;SDS011;8803;48.116;11.590;2023-10-08T00:48:04;4.30;;;3.13;;
17372;SDS011;8803;48.116;11.590;2023-10-08T00:50:09;5.30;;;3.23;;
17372;SDS011;8803;48.116;11.590;2023-10-08T00:52:16;4.73;;;3.30;;
17372;SDS011;8803;48.116;11.590;2023-10-08T00:54:29;4.77;;;3.10;;
17372;SDS011;8803;48.116;11.590;2023-10-08T00:56:36;5.37;;;2.77;;
17372;SDS011;8803;48.116;11.590;2023-10-08T00:58:49;4.70;;;3.70;;
17372;SDS011;8803;48.116;11.590;2023-10-08T01:00:55;5.13;;;4.13;;
17372;SDS011;8803;48.116;11.590;2023-10-08T01:03:01;5.60;;;4.30;;
17372;SDS011;8803;48.116;11.590;2023-10-08T01:05:09;4.33;;;3.30;;
17372;SDS011;8803;48.116;11.590;2023-10-08T01:07:15;5.03;;;3.13;;
17372;SDS011;8803;48.116;11.590;2023-10-08T01:09:20;4.03;;;2.83;;
17372;SDS011;8803;48.116;11.590;2023-10-08T01:11:27;4.13;;;2.73;;
17372;SDS011;8803;48.116;11.590;2023-10-08T01:13:34;4.87;;;3.40;;
17372;SDS011;8803;48.116;11.590;2023-10-08T01:15:41;4.63;;;2.80;;
17372;SDS011;8803;48.116;11.590;2023-10-08T01:17:54;5.13;;;3.27;;
17372;SDS011;8803;48.116;11.590;2023-10-08T01:20:02;4.37;;;3.03;;
17372;SDS011;8803;48.116;11.590;2023-10-08T01:22:09;4.97;;;3.50;;
17372;SDS011;8803;48.116;11.590;2023-10-08T01:24:16;3.70;;;2.83;;
17372;SDS011;8803;48.116;11.590;2023-10-08T01:26:23;4.90;;;2.90;;
17372;SDS011;8803;48.116;11.590;2023-10-08T01:28:29;4.87;;;3.30;;
17372;SDS011;8803;48.116;11.590;2023-10-08T01:30:42;5.03;;;2.90;;
17372;SDS011;8803;48.116;11.590;2023-10-08T01:32:48;4.60;;;2.90;;
17372;SDS011;8803;48.116;11.590;2023-10-08T01:34:53;5.10;;;3.10;;
17372;SDS011;8803;48.116;11.590;2023-10-08T01:37:00;3.80;;;2.73;;
17372;SDS011;8803;48.116;11.590;2023-10-08T01:39:06;4.13;;;2.63;;
17372;SDS011;8803;48.116;11.590;2023-10-08T01:41:13;5.17;;;2.90;;
17372;SDS011;8803;48.116;11.590;2023-10-08T01:43:20;4.50;;;2.90;;
17372;SDS011;8803;48.116;11.590;2023-10-08T01:45:27;4.13;;;3.50;;
17372;SDS011;8803;48.116;11.590;2023-10-08T01:47:32;6.57;;;4.03;;
17372;SDS011;8803;48.116;11.590;2023-10-08T01:49:37;6.67;;;3.90;;
17372;SDS011;8803;48.116;11.590;2023-10-08T01:51:43;5.30;;;3.60;;
17372;SDS011;8803;48.116;11.590;2023-10-08T01:53:48;4.67;;;3.50;;
17372;SDS011;8803;48.116;11.590;2023-10-08T01:55:55;7.10;;;3.27;;
17372;SDS011;8803;48.116;11.590;2023-10-08T01:57:59;4.43;;;3.20;;
17372;SDS011;8803;48.116;11.590;2023-10-08T02:00:07;7.77;;;3.37;;
17372;SDS011;8803;48.116;11.590;2023-10-08T02:02:15;4.93;;;3.10;;
17372;SDS011;8803;48.116;11.590;2023-10-08T02:04:29;4.77;;;2.80;;
17372;SDS011;8803;48.116;11.590;2023-10-08T02:06:34;4.40;;;2.90;;
17372;SDS011;8803;48.116;11.590;2023-10-08T02:10:52;5.17;;;2.80;;
17372;SDS011;8803;48.116;11.590;2023-10-08T02:12:57;4.23;;;2.70;;
17372;SDS011;8803;48.116;11.590;2023-10-08T02:15:04;4.50;;;3.00;;
17372;SDS011;8803;48.116;11.590;2023-10-08T02:17:12;4.27;;;2.80;;
17372;SDS011;8803;48.116;11.590;2023-10-08T02:19:16;5.50;;;2.97;;
17372;SDS011;8803;48.116;11.590;2023-10-08T02:21:22;5.27;;;3.00;;
17372;SDS011;8803;48.116;11.590;2023-10-08T02:23:35;5.90;;;3.17;;
17372;SDS011;8803;48.116;11.590;2023-10-08T02:25:39;5.50;;;3.10;;
17372;SDS011;8803;48.116;11.590;2023-10-08T02:27:45;4.80;;;2.77;;
17372;SDS011;8803;48.116;11.590;2023-10-08T02:29:50;6.40;;;3.43;;
17372;SDS011;8803;48.116;11.590;2023-10-08T02:31:54;5.07;;;3.00;;
17372;SDS011;8803;48.116;11.590;2023-10-08T02:33:58;6.33;;;3.57;;
17372;SDS011;8803;48.116;11.590;2023-10-08T02:36:03;4.73;;;3.07;;
17372;SDS011;8803;48.116;11.590;2023-10-08T02:38:17;3.80;;;2.83;;
17372;SDS011;8803;48.116;11.590;2023-10-08T02:40:22;5.83;;;3.00;;
17372;SDS011;8803;48.116;11.590;2023-10-08T02:42:28;4.37;;;2.70;;
17372;SDS011;8803;48.116;11.590;2023-10-08T02:44:35;5.40;;;2.90;;
17372;SDS011;8803;48.116;11.590;2023-10-08T02:46:42;4.80;;;3.07;;
17372;SDS011;8803;48.116;11.590;2023-10-08T02:48:48;5.03;;;2.87;;
17372;SDS011;8803;48.116;11.590;2023-10-08T02:50:53;5.73;;;2.90;;
17372;SDS011;8803;48.116;11.590;2023-10-08T02:53:00;5.50;;;3.50;;
17372;SDS011;8803;48.116;11.590;2023-10-08T02:55:07;4.37;;;3.27;;
17372;SDS011;8803;48.116;11.590;2023-10-08T02:57:15;4.27;;;3.03;;
17372;SDS011;8803;48.116;11.590;2023-10-08T02:59:21;3.60;;;2.50;;
17372;SDS011;8803;48.116;11.590;2023-10-08T03:01:26;4.73;;;2.80;;
17372;SDS011;8803;48.116;11.590;2023-10-08T03:03:32;5.50;;;3.00;;
17372;SDS011;8803;48.116;11.590;2023-10-08T03:05:38;4.43;;;3.20;;
17372;SDS011;8803;48.116;11.590;2023-10-08T03:07:42;4.90;;;2.70;;
17372;SDS011;8803;48.116;11.590;2023-10-08T03:09:47;4.23;;;3.03;;
17372;SDS011;8803;48.116;11.590;2023-10-08T03:11:52;4.80;;;2.57;;
17372;SDS011;8803;48.116;11.590;2023-10-08T03:13:58;4.73;;;2.70;;
17372;SDS011;8803;48.116;11.590;2023-10-08T03:16:04;5.00;;;3.10;;
17372;SDS011;8803;48.116;11.590;2023-10-08T03:18:14;5.17;;;3.57;;
17372;SDS011;8803;48.116;11.590;2023-10-08T03:20:21;4.33;;;2.80;;
17372;SDS011;8803;48.116;11.590;2023-10-08T03:22:34;4.10;;;2.80;;
17372;SDS011;8803;48.116;11.590;2023-10-08T03:24:39;4.33;;;2.60;;
17372;SDS011;8803;48.116;11.590;2023-10-08T03:26:43;5.13;;;2.63;;
17372;SDS011;8803;48.116;11.590;2023-10-08T03:28:51;7.17;;;3.30;;
17372;SDS011;8803;48.116;11.590;2023-10-08T03:30:57;4.00;;;2.73;;
17372;SDS011;8803;48.116;11.590;2023-10-08T03:33:05;4.33;;;2.80;;
17372;SDS011;8803;48.116;11.590;2023-10-08T03:35:11;5.00;;;2.50;;
17372;SDS011;8803;48.116;11.590;2023-10-08T03:39:32;3.43;;;2.53;;
17372;SDS011;8803;48.116;11.590;2023-10-08T03:41:53;5.93;;;3.03;;
17372;SDS011;8803;48.116;11.590;2023-10-08T03:44:02;3.93;;;2.70;;
17372;SDS011;8803;48.116;11.590;2023-10-08T03:46:09;4.20;;;2.77;;
17372;SDS011;8803;48.116;11.590;2023-10-08T03:48:22;4.27;;;2.70;;
17372;SDS011;8803;48.116;11.590;2023-10-08T03:50:29;4.00;;;2.43;;
17372;SDS011;8803;48.116;11.590;2023-10-08T03:52:36;4.90;;;2.83;;
17372;SDS011;8803;48.116;11.590;2023-10-08T03:54:40;3.80;;;2.60;;
17372;SDS011;8803;48.116;11.590;2023-10-08T03:56:46;3.90;;;2.77;;
17372;SDS011;8803;48.116;11.590;2023-10-08T03:58:52;3.70;;;2.73;;
17372;SDS011;8803;48.116;11.590;2023-10-08T04:00:56;3.87;;;2.60;;
17372;SDS011;8803;48.116;11.590;2023-10-08T04:03:07;5.70;;;3.00;;
17372;SDS011;8803;48.116;11.590;2023-10-08T04:05:13;4.67;;;2.70;;
17372;SDS011;8803;48.116;11.590;2023-10-08T04:07:21;6.10;;;2.90;;
17372;SDS011;8803;48.116;11.590;2023-10-08T04:09:29;5.07;;;2.70;;
17372;SDS011;8803;48.116;11.590;2023-10-08T04:11:33;4.23;;;3.00;;
17372;SDS011;8803;48.116;11.590;2023-10-08T04:13:46;6.73;;;2.70;;
17372;SDS011;8803;48.116;11.590;2023-10-08T04:15:52;3.43;;;2.33;;
17372;SDS011;8803;48.116;11.590;2023-10-08T04:17:56;4.27;;;2.70;;
17372;SDS011;8803;48.116;11.590;2023-10-08T04:20:11;4.93;;;2.80;;
17372;SDS011;8803;48.116;11.590;2023-10-08T04:22:34;4.97;;;2.93;;
17372;SDS011;8803;48.116;11.590;2023-10-08T04:24:38;4.50;;;3.03;;
17372;SDS011;8803;48.116;11.590;2023-10-08T04:26:44;4.70;;;2.73;;
17372;SDS011;8803;48.116;11.590;2023-10-08T04:28:57;6.03;;;2.97;;
17372;SDS011;8803;48.116;11.590;2023-10-08T04:31:04;4.80;;;2.67;;
17372;SDS011;8803;48.116;11.590;2023-10-08T04:33:16;4.80;;;2.60;;
17372;SDS011;8803;48.116;11.590;2023-10-08T04:35:22;7.77;;;3.30;;
17372;SDS011;8803;48.116;11.590;2023-10-08T04:37:28;4.23;;;2.70;;
17372;SDS011;8803;48.116;11.590;2023-10-08T04:39:34;4.40;;;2.70;;
17372;SDS011;8803;48.116;11.590;2023-10-08T04:41:47;3.63;;;2.53;;
17372;SDS011;8803;48.116;11.590;2023-10-08T04:43:53;4.67;;;3.17;;
17372;SDS011;8803;48.116;11.590;2023-10-08T04:45:58;5.43;;;3.23;;
17372;SDS011;8803;48.116;11.590;2023-10-08T04:48:06;6.27;;;2.73;;
17372;SDS011;8803;48.116;11.590;2023-10-08T04:50:11;4.20;;;2.87;;
17372;SDS011;8803;48.116;11.590;2023-10-08T04:52:18;4.40;;;2.60;;
17372;SDS011;8803;48.116;11.590;2023-10-08T04:54:25;4.47;;;2.67;;
17372;SDS011;8803;48.116;11.590;2023-10-08T04:56:31;6.33;;;3.10;;
17372;SDS011;8803;48.116;11.590;2023-10-08T04:58:35;6.23;;;2.80;;
17372;SDS011;8803;48.116;11.590;2023-10-08T05:00:48;4.23;;;2.70;;
17372;SDS011;8803;48.116;11.590;2023-10-08T05:02:57;4.40;;;2.67;;
17372;SDS011;8803;48.116;11.590;2023-10-08T05:05:04;7.93;;;2.70;;
17372;SDS011;8803;48.116;11.590;2023-10-08T05:07:24;5.60;;;3.17;;
17372;SDS011;8803;48.116;11.590;2023-10-08T05:09:45;5.60;;;2.77;;
17372;SDS011;8803;48.116;11.590;2023-10-08T05:12:08;5.43;;;2.77;;
17372;SDS011;8803;48.116;11.590;2023-10-08T05:14:15;4.07;;;2.53;;
17372;SDS011;8803;48.116;11.590;2023-10-08T05:16:23;7.30;;;3.27;;
17372;SDS011;8803;48.116;11.590;2023-10-08T05:18:39;3.57;;;2.70;;
17372;SDS011;8803;48.116;11.590;2023-10-08T05:20:53;6.10;;;2.73;;
17372;SDS011;8803;48.116;11.590;2023-10-08T05:23:06;7.53;;;3.17;;
17372;SDS011;8803;48.116;11.590;2023-10-08T05:25:24;3.97;;;2.70;;
17372;SDS011;8803;48.116;11.590;2023-10-08T05:27:30;4.63;;;2.70;;
17372;SDS011;8803;48.116;11.590;2023-10-08T05:30:01;5.33;;;3.20;;
17372;SDS011;8803;48.116;11.590;2023-10-08T05:32:14;4.27;;;3.03;;
17372;SDS011;8803;48.116;11.590;2023-10-08T05:34:40;4.57;;;2.90;;
17372;SDS011;8803;48.116;11.590;2023-10-08T05:36:54;4.90;;;3.17;;
17372;SDS011;8803;48.116;11.590;2023-10-08T05:39:19;4.37;;;2.77;;
17372;SDS011;8803;48.116;11.590;2023-10-08T05:41:24;4.67;;;2.83;;
17372;SDS011;8803;48.116;11.590;2023-10-08T05:43:36;4.33;;;2.70;;
17372;SDS011;8803;48.116;11.590;2023-10-08T05:46:09;7.47;;;2.73;;
17372;SDS011;8803;48.116;11.590;2023-10-08T05:48:23;4.60;;;2.87;;
17372;SDS011;8803;48.116;11.590;2023-10-08T05:50:28;4.27;;;2.57;;
17372;SDS011;8803;48.116;11.590;2023-10-08T05:52:41;5.03;;;2.90;;
17372;SDS011;8803;48.116;11.590;2023-10-08T05:54:54;5.40;;;2.80;;
17372;SDS011;8803;48.116;11.590;2023-10-08T05:57:20;5.47;;;3.07;;
17372;SDS011;8803;48.116;11.590;2023-10-08T05:59:33;5.67;;;2.57;;
17372;SDS011;8803;48.116;11.590;2023-10-08T06:01:42;4.90;;;2.80;;
17372;SDS011;8803;48.116;11.590;2023-10-08T06:03:47;6.20;;;2.80;;
17372;SDS011;8803;48.116;11.590;2023-10-08T06:06:00;5.50;;;2.77;;
17372;SDS011;8803;48.116;11.590;2023-10-08T06:08:24;5.30;;;2.87;;
17372;SDS011;8803;48.116;11.590;2023-10-08T06:10:42;3.97;;;2.53;;
17372;SDS011;8803;48.116;11.590;2023-10-08T06:12:55;3.40;;;2.37;;
17372;SDS011;8803;48.116;11.590;2023-10-08T06:15:01;5.03;;;3.13;;
17372;SDS011;8803;48.116;11.590;2023-10-08T06:17:09;5.73;;;3.23;;
17372;SDS011;8803;48.116;11.590;2023-10-08T06:19:17;7.60;;;3.37;;
17372;SDS011;8803;48.116;11.590;2023-10-08T06:21:22;4.63;;;2.80;;
17372;SDS011;8803;48.116;11.590;2023-10-08T06:23:28;3.50;;;2.67;;
17372;SDS011;8803;48.116;11.590;2023-10-08T06:25:35;4.43;;;2.83;;
17372;SDS011;8803;48.116;11.590;2023-10-08T06:27:42;5.73;;;3.20;;
17372;SDS011;8803;48.116;11.590;2023-10-08T06:29:55;4.67;;;3.10;;
17372;SDS011;8803;48.116;11.590;2023-10-08T06:31:59;4.27;;;2.87;;
17372;SDS011;8803;48.116;11.590;2023-10-08T06:34:04;5.17;;;3.07;;
17372;SDS011;8803;48.116;11.590;2023-10-08T06:36:18;4.40;;;2.80;;
17372;SDS011;8803;48.116;11.590;2023-10-08T06:38:24;4.43;;;2.80;;
17372;SDS011;8803;48.116;11.590;2023-10-08T06:40:29;3.53;;;2.50;;
17372;SDS011;8803;48.116;11.590;2023-10-08T06:42:42;4.13;;;3.03;;
17372;SDS011;8803;48.116;11.590;2023-10-08T06:44:47;4.10;;;2.70;;
17372;SDS011;8803;48.116;11.590;2023-10-08T06:46:54;4.73;;;2.90;;
17372;SDS011;8803;48.116;11.590;2023-10-08T06:48:59;5.00;;;2.80;;
17372;SDS011;8803;48.116;11.590;2023-10-08T06:51:06;4.10;;;2.90;;
17372;SDS011;8803;48.116;11.590;2023-10-08T06:53:13;4.80;;;2.80;;
17372;SDS011;8803;48.116;11.590;2023-10-08T06:55:19;4.00;;;2.80;;
17372;SDS011;8803;48.116;11.590;2023-10-08T06:57:25;3.70;;;2.70;;
17372;SDS011;8803;48.116;11.590;2023-10-08T07:01:43;3.73;;;2.50;;
17372;SDS011;8803;48.116;11.590;2023-10-08T07:03:48;4.17;;;2.53;;
17372;SDS011;8803;48.116;11.590;2023-10-08T07:05:53;3.13;;;2.33;;
17372;SDS011;8803;48.116;11.590;2023-10-08T07:08:08;4.87;;;2.67;;
17372;SDS011;8803;48.116;11.590;2023-10-08T07:10:14;4.93;;;2.90;;
17372;SDS011;8803;48.116;11.590;2023-10-08T07:12:20;5.20;;;2.93;;
17372;SDS011;8803;48.116;11.590;2023-10-08T07:14:33;6.17;;;2.87;;
17372;SDS011;8803;48.116;11.590;2023-10-08T07:16:39;3.73;;;2.60;;
17372;SDS011;8803;48.116;11.590;2023-10-08T07:18:44;4.60;;;2.70;;
17372;SDS011;8803;48.116;11.590;2023-10-08T07:20:51;4.83;;;2.90;;
17372;SDS011;8803;48.116;11.590;2023-10-08T07:22:59;4.90;;;2.80;;
17372;SDS011;8803;48.116;11.590;2023-10-08T07:25:05;4.17;;;3.00;;
17372;SDS011;8803;48.116;11.590;2023-10-08T07:27:12;3.77;;;2.43;;
17372;SDS011;8803;48.116;11.590;2023-10-08T07:29:16;3.47;;;2.53;;
17372;SDS011;8803;48.116;11.590;2023-10-08T07:31:22;4.13;;;2.80;;
17372;SDS011;8803;48.116;11.590;2023-10-08T07:33:38;4.63;;;3.03;;
17372;SDS011;8803;48.116;11.590;2023-10-08T07:35:44;4.63;;;2.80;;
17372;SDS011;8803;48.116;11.590;2023-10-08T07:37:55;4.30;;;2.77;;
17372;SDS011;8803;48.116;11.590;2023-10-08T07:40:00;4.70;;;2.77;;
17372;SDS011;8803;48.116;11.590;2023-10-08T07:42:08;5.60;;;3.13;;
17372;SDS011;8803;48.116;11.590;2023-10-08T07:44:21;5.33;;;3.20;;
17372;SDS011;8803;48.116;11.590;2023-10-08T07:46:26;4.60;;;2.77;;
17372;SDS011;8803;48.116;11.590;2023-10-08T07:48:30;4.83;;;2.70;;
17372;SDS011;8803;48.116;11.590;2023-10-08T07:50:44;5.13;;;2.97;;
17372;SDS011;8803;48.116;11.590;2023-10-08T07:52:48;5.63;;;2.77;;
17372;SDS011;8803;48.116;11.590;2023-10-08T07:55:01;4.87;;;2.77;;
17372;SDS011;8803;48.116;11.590;2023-10-08T07:57:07;4.47;;;2.67;;
17372;SDS011;8803;48.116;11.590;2023-10-08T07:59:13;5.33;;;3.03;;
17372;SDS011;8803;48.116;11.590;2023-10-08T08:01:17;5.63;;;3.70;;
17372;SDS011;8803;48.116;11.590;2023-10-08T08:03:22;5.67;;;3.23;;
17372;SDS011;8803;48.116;11.590;2023-10-08T08:05:26;4.67;;;3.00;;
17372;SDS011;8803;48.116;11.590;2023-10-08T08:07:31;4.73;;;2.90;;
17372;SDS011;8803;48.116;11.590;2023-10-08T08:11:47;5.40;;;3.20;;
17372;SDS011;8803;48.116;11.590;2023-10-08T08:13:52;4.97;;;2.70;;
17372;SDS011;8803;48.116;11.590;2023-10-08T08:16:04;7.43;;;2.93;;
17372;SDS011;8803;48.116;11.590;2023-10-08T08:18:13;4.40;;;3.00;;
17372;SDS011;8803;48.116;11.590;2023-10-08T08:20:20;5.13;;;2.47;;
17372;SDS011;8803;48.116;11.590;2023-10-08T08:22:33;5.27;;;2.90;;
17372;SDS011;8803;48.116;11.590;2023-10-08T08:24:39;4.57;;;3.00;;
17372;SDS011;8803;48.116;11.590;2023-10-08T08:26:45;5.13;;;2.70;;
17372;SDS011;8803;48.116;11.590;2023-10-08T08:28:58;4.07;;;2.67;;
17372;SDS011;8803;48.116;11.590;2023-10-08T08:31:03;4.60;;;3.00;;
17372;SDS011;8803;48.116;11.590;2023-10-08T08:33:12;5.23;;;2.97;;
17372;SDS011;8803;48.116;11.590;2023-10-08T08:35:18;6.40;;;3.13;;
17372;SDS011;8803;48.116;11.590;2023-10-08T08:37:23;6.13;;;3.67;;
17372;SDS011;8803;48.116;11.590;2023-10-08T08:39:29;5.40;;;3.20;;
17372;SDS011;8803;48.116;11.590;2023-10-08T08:41:37;6.30;;;2.83;;
17372;SDS011;8803;48.116;11.590;2023-10-08T08:43:41;6.27;;;3.20;;
17372;SDS011;8803;48.116;11.590;2023-10-08T08:45:48;4.93;;;2.73;;
17372;SDS011;8803;48.116;11.590;2023-10-08T08:47:55;4.20;;;2.70;;
17372;SDS011;8803;48.116;11.590;2023-10-08T08:50:00;4.57;;;2.87;;
17372;SDS011;8803;48.116;11.590;2023-10-08T08:52:08;5.33;;;3.07;;
17372;SDS011;8803;48.116;11.590;2023-10-08T08:54:14;4.63;;;2.43;;
17372;SDS011;8803;48.116;11.590;2023-10-08T08:56:19;4.37;;;2.90;;
17372;SDS011;8803;48.116;11.590;2023-10-08T08:58:25;5.97;;;2.83;;
17372;SDS011;8803;48.116;11.590;2023-10-08T09:00:30;5.60;;;2.73;;
17372;SDS011;8803;48.116;11.590;2023-10-08T09:02:35;4.20;;;2.87;;
17372;SDS011;8803;48.116;11.590;2023-10-08T09:04:39;7.57;;;3.30;;
17372;SDS011;8803;48.116;11.590;2023-10-08T09:06:44;4.50;;;2.83;;
17372;SDS011;8803;48.116;11.590;2023-10-08T09:08:50;4.80;;;2.53;;
17372;SDS011;8803;48.116;11.590;2023-10-08T09:10:58;5.23;;;3.30;;
17372;SDS011;8803;48.116;11.590;2023-10-08T09:13:04;5.47;;;2.70;;
17372;SDS011;8803;48.116;11.590;2023-10-08T09:15:11;6.87;;;3.10;;
17372;SDS011;8803;48.116;11.590;2023-10-08T09:17:24;5.30;;;3.23;;
17372;SDS011;8803;48.116;11.590;2023-10-08T09:19:30;5.70;;;3.10;;
17372;SDS011;8803;48.116;11.590;2023-10-08T09:22:00;4.90;;;3.53;;
17372;SDS011;8803;48.116;11.590;2023-10-08T09:24:06;5.03;;;2.87;;
17372;SDS011;8803;48.116;11.590;2023-10-08T09:26:12;5.93;;;3.17;;
17372;SDS011;8803;48.116;11.590;2023-10-08T09:28:21;5.53;;;3.23;;
17372;SDS011;8803;48.116;11.590;2023-10-08T09:30:29;4.77;;;2.97;;
17372;SDS011;8803;48.116;11.590;2023-10-08T09:32:36;4.27;;;2.80;;
17372;SDS011;8803;48.116;11.590;2023-10-08T09:34:51;5.17;;;2.73;;
17372;SDS011;8803;48.116;11.590;2023-10-08T09:36:57;4.90;;;2.67;;
17372;SDS011;8803;48.116;11.590;2023-10-08T09:39:03;5.33;;;2.80;;
17372;SDS011;8803;48.116;11.590;2023-10-08T09:41:11;4.50;;;2.70;;
17372;SDS011;8803;48.116;11.590;2023-10-08T09:43:16;6.00;;;3.10;;
17372;SDS011;8803;48.116;11.590;2023-10-08T09:45:21;4.23;;;2.53;;
17372;SDS011;8803;48.116;11.590;2023-10-08T09:47:26;6.27;;;3.47;;
17372;SDS011;8803;48.116;11.590;2023-10-08T09:49:33;8.57;;;3.77;;
17372;SDS011;8803;48.116;11.590;2023-10-08T09:51:48;6.77;;;3.53;;
17372;SDS011;8803;48.116;11.590;2023-10-08T09:53:56;8.63;;;3.80;;
17372;SDS011;8803;48.116;11.590;2023-10-08T09:56:01;6.20;;;3.27;;
17372;SDS011;8803;48.116;11.590;2023-10-08T09:58:10;5.47;;;3.20;;
17372;SDS011;8803;48.116;11.590;2023-10-08T10:00:17;4.87;;;3.07;;
17372;SDS011;8803;48.116;11.590;2023-10-08T10:02:24;5.10;;;3.07;;
17372;SDS011;8803;48.116;11.590;2023-10-08T10:04:31;5.07;;;2.93;;
17372;SDS011;8803;48.116;11.590;2023-10-08T10:06:36;6.03;;;3.30;;
17372;SDS011;8803;48.116;11.590;2023-10-08T10:08:49;5.73;;;3.17;;
17372;SDS011;8803;48.116;11.590;2023-10-08T10:10:58;6.13;;;3.27;;
17372;SDS011;8803;48.116;11.590;2023-10-08T10:13:04;7.63;;;3.20;;
17372;SDS011;8803;48.116;11.590;2023-10-08T10:15:17;8.23;;;3.03;;
17372;SDS011;8803;48.116;11.590;2023-10-08T10:17:24;5.77;;;3.73;;
17372;SDS011;8803;48.116;11.590;2023-10-08T10:19:29;7.60;;;3.87;;
17372;SDS011;8803;48.116;11.590;2023-10-08T10:21:34;7.60;;;4.37;;
17372;SDS011;8803;48.116;11.590;2023-10-08T10:23:39;24.60;;;19.40;;
17372;SDS011;8803;48.116;11.590;2023-10-08T10:25:45;30.67;;;23.53;;
17372;SDS011;8803;48.116;11.590;2023-10-08T10:30:26;19.37;;;14.20;;
17372;SDS011;8803;48.116;11.590;2023-10-08T10:32:42;17.07;;;10.47;;
17372;SDS011;8803;48.116;11.590;2023-10-08T10:34:48;11.83;;;8.13;;
17372;SDS011;8803;48.116;11.590;2023-10-08T10:36:54;8.77;;;6.23;;
17372;SDS011;8803;48.116;11.590;2023-10-08T10:39:02;8.08;;;5.30;;
17372;SDS011;8803;48.116;11.590;2023-10-08T10:41:10;10.03;;;5.30;;
17372;SDS011;8803;48.116;11.590;2023-10-08T10:43:24;7.60;;;4.90;;
17372;SDS011;8803;48.116;11.590;2023-10-08T10:45:33;5.77;;;3.93;;
17372;SDS011;8803;48.116;11.590;2023-10-08T10:47:40;7.00;;;3.60;;
17372;SDS011;8803;48.116;11.590;2023-10-08T10:49:47;7.50;;;3.85;;
17372;SDS011;8803;48.116;11.590;2023-10-08T10:51:56;6.07;;;3.70;;
17372;SDS011;8803;48.116;11.590;2023-10-08T10:54:00;4.33;;;3.07;;
17372;SDS011;8803;48.116;11.590;2023-10-08T10:56:14;6.53;;;2.93;;
17372;SDS011;8803;48.116;11.590;2023-10-08T10:58:20;6.53;;;3.50;;
17372;SDS011;8803;48.116;11.590;2023-10-08T11:00:26;7.30;;;3.27;;
17372;SDS011;8803;48.116;11.590;2023-10-08T11:02:59;8.60;;;3.53;;
17372;SDS011;8803;48.116;11.590;2023-10-08T11:05:13;4.93;;;3.00;;
17372;SDS011;8803;48.116;11.590;2023-10-08T11:07:21;5.23;;;2.93;;
17372;SDS011;8803;48.116;11.590;2023-10-08T11:09:27;6.08;;;2.80;;
17372;SDS011;8803;48.116;11.590;2023-10-08T11:11:39;3.97;;;2.80;;
17372;SDS011;8803;48.116;11.590;2023-10-08T11:13:45;4.50;;;2.60;;
17372;SDS011;8803;48.116;11.590;2023-10-08T11:15:58;4.50;;;2.93;;
17372;SDS011;8803;48.116;11.590;2023-10-08T11:18:07;5.50;;;3.15;;
17372;SDS011;8803;48.116;11.590;2023-10-08T11:20:25;6.37;;;3.33;;
17372;SDS011;8803;48.116;11.590;2023-10-08T11:22:41;5.05;;;3.08;;
17372;SDS011;8803;48.116;11.590;2023-10-08T11:24:46;9.57;;;3.90;;
17372;SDS011;8803;48.116;11.590;2023-10-08T11:26:52;7.50;;;3.53;;
17372;SDS011;8803;48.116;11.590;2023-10-08T11:29:05;7.07;;;3.87;;
17372;SDS011;8803;48.116;11.590;2023-10-08T11:31:15;5.03;;;3.17;;
17372;SDS011;8803;48.116;11.590;2023-10-08T11:33:28;4.13;;;2.70;;
17372;SDS011;8803;48.116;11.590;2023-10-08T11:35:33;5.53;;;2.75;;
17372;SDS011;8803;48.116;11.590;2023-10-08T11:37:39;5.43;;;3.10;;
17372;SDS011;8803;48.116;11.590;2023-10-08T11:39:51;4.43;;;2.90;;
17372;SDS011;8803;48.116;11.590;2023-10-08T11:41:58;4.70;;;2.93;;
17372;SDS011;8803;48.116;11.590;2023-10-08T11:44:05;5.60;;;3.20;;
17372;SDS011;8803;48.116;11.590;2023-10-08T11:46:18;5.23;;;3.00;;
17372;SDS011;8803;48.116;11.590;2023-10-08T11:48:26;4.83;;;2.50;;
17372;SDS011;8803;48.116;11.590;2023-10-08T11:50:31;5.97;;;2.47;;
17372;SDS011;8803;48.116;11.590;2023-10-08T11:52:36;4.57;;;2.70;;
17372;SDS011;8803;48.116;11.590;2023-10-08T11:54:43;6.13;;;3.00;;
17372;SDS011;8803;48.116;11.590;2023-10-08T11:59:02;8.63;;;2.83;;
17372;SDS011;8803;48.116;11.590;2023-10-08T12:01:09;6.97;;;2.97;;
17372;SDS011;8803;48.116;11.590;2023-10-08T12:03:17;4.83;;;2.67;;
17372;SDS011;8803;48.116;11.590;2023-10-08T12:05:21;5.27;;;2.80;;
17372;SDS011;8803;48.116;11.590;2023-10-08T12:07:26;8.37;;;3.30;;
17372;SDS011;8803;48.116;11.590;2023-10-08T12:09:30;6.50;;;2.62;;
17372;SDS011;8803;48.116;11.590;2023-10-08T12:11:36;7.80;;;3.27;;
17372;SDS011;8803;48.116;11.590;2023-10-08T12:13:42;4.80;;;2.50;;
17372;SDS011;8803;48.116;11.590;2023-10-08T12:15:48;6.17;;;2.73;;
17372;SDS011;8803;48.116;11.590;2023-10-08T12:17:52;6.17;;;3.37;;
17372;SDS011;8803;48.116;11.590;2023-10-08T12:20:12;3.57;;;2.40;;
17372;SDS011;8803;48.116;11.590;2023-10-08T12:22:24;8.70;;;2.83;;
17372;SDS011;8803;48.116;11.590;2023-10-08T12:24:30;7.80;;;2.83;;
17372;SDS011;8803;48.116;11.590;2023-10-08T12:26:35;6.63;;;2.87;;
17372;SDS011;8803;48.116;11.590;2023-10-08T12:28:41;8.07;;;3.07;;
17372;SDS011;8803;48.116;11.590;2023-10-08T12:30:54;6.50;;;3.10;;
17372;SDS011;8803;48.116;11.590;2023-10-08T12:32:59;7.03;;;2.97;;
17372;SDS011;8803;48.116;11.590;2023-10-08T12:35:05;4.30;;;2.70;;
17372;SDS011;8803;48.116;11.590;2023-10-08T12:37:13;6.17;;;2.83;;
17372;SDS011;8803;48.116;11.590;2023-10-08T12:39:17;10.93;;;3.97;;
17372;SDS011;8803;48.116;11.590;2023-10-08T12:41:23;8.33;;;3.20;;
17372;SDS011;8803;48.116;11.590;2023-10-08T12:43:36;5.73;;;2.50;;
17372;SDS011;8803;48.116;11.590;2023-10-08T12:45:42;4.80;;;2.70;;
17372;SDS011;8803;48.116;11.590;2023-10-08T12:47:49;7.83;;;3.10;;
17372;SDS011;8803;48.116;11.590;2023-10-08T12:49:54;6.53;;;3.17;;
17372;SDS011;8803;48.116;11.590;2023-10-08T12:51:58;6.03;;;3.00;;
17372;SDS011;8803;48.116;11.590;2023-10-08T12:54:12;5.43;;;2.80;;
17372;SDS011;8803;48.116;11.590;2023-10-08T12:56:19;4.93;;;3.10;;
17372;SDS011;8803;48.116;11.590;2023-10-08T12:58:25;9.87;;;3.03;;
17372;SDS011;8803;48.116;11.590;2023-10-08T13:00:31;4.67;;;2.97;;
17372;SDS011;8803;48.116;11.590;2023-10-08T13:02:35;5.17;;;2.50;;
17372;SDS011;8803;48.116;11.590;2023-10-08T13:04:41;8.47;;;3.30;;
17372;SDS011;8803;48.116;11.590;2023-10-08T13:06:47;7.27;;;2.63;;